Latest Weather Observations for Inner Beacon

IDQ60801

Issued at 10:35 am EST Sunday 26 October 2014 (issued every 30 minutes, with the page automatically refreshed every 10 minutes)

About weather observations | Map of weather stations | Latest weather observations for QLD | Other Formats
Station Details ID: 040926 Name: INNER RECIPROCAL MARKER Lat: -27.26 Lon: 153.24 Height: 20.0 m
Data from the previous 72 hours. | See also: Recent months for locations in Queensland
Date/Time
EST
Temp
°C
App
Temp
°C
Dew
Point
Rel
Hum
%
Delta-T
°C
Wind Press
QNH
hPa
Press
MSL
hPa
Rain
since 9 am
mm
Dir
 
Spd
km/h
Gust
km/h
Spd
kts
Gust
kts
26/10:30am - - - - - NE 33 37 18 20 - - -
26/10:00am - - - - - NE 33 37 18 20 - - -
26/09:30am - - - - - NE 33 39 18 21 - - -
26/09:00am - - - - - NE 32 35 17 19 - - -
26/08:30am - - - - - NE 32 37 17 20 - - -
26/08:00am - - - - - NE 32 37 17 20 - - -
26/07:30am - - - - - NE 30 35 16 19 - - -
26/07:00am - - - - - NE 26 30 14 16 - - -
26/06:30am - - - - - NNE 22 26 12 14 - - -
26/06:00am - - - - - NE 20 22 11 12 - - -
26/05:30am - - - - - NE 24 26 13 14 - - -
26/05:00am - - - - - N 19 22 10 12 - - -
26/04:30am - - - - - N 19 22 10 12 - - -
26/04:00am - - - - - NNW 22 26 12 14 - - -
26/03:30am - - - - - NNW 20 24 11 13 - - -
26/03:00am - - - - - N 24 30 13 16 - - -
26/02:30am - - - - - N 30 33 16 18 - - -
26/02:00am - - - - - N 35 41 19 22 - - -
26/01:30am - - - - - N 35 41 19 22 - - -
26/01:00am - - - - - N 33 39 18 21 - - -
26/12:30am - - - - - N 41 48 22 26 - - -
26/12:11am - - - - - N 44 52 24 28 - - -
26/12:00am - - - - - NE 46 54 25 29 - - -
 
Date/Time
EST
Temp
°C
App
Temp
°C
Dew
Point
Rel
Hum
%
Delta-T
°C
Wind Press
QNH
hPa
Press
MSL
hPa
Rain
since 9 am
mm
Dir
 
Spd
km/h
Gust
km/h
Spd
kts
Gust
kts
25/11:30pm - - - - - NE 48 57 26 31 - - -
25/11:00pm - - - - - NE 41 50 22 27 - - -
25/10:30pm - - - - - NE 41 48 22 26 - - -
25/10:00pm - - - - - NE 37 46 20 25 - - -
25/09:30pm - - - - - NE 39 46 21 25 - - -
25/09:00pm - - - - - NE 41 52 22 28 - - -
25/08:30pm - - - - - NE 46 54 25 29 - - -
25/08:00pm - - - - - NE 50 59 27 32 - - -
25/07:30pm - - - - - NE 48 57 26 31 - - -
25/07:00pm - - - - - NE 44 56 24 30 - - -
25/06:30pm - - - - - NE 41 50 22 27 - - -
25/06:00pm - - - - - NE 39 46 21 25 - - -
25/05:30pm - - - - - NE 37 44 20 24 - - -
25/05:00pm - - - - - NE 39 48 21 26 - - -
25/04:30pm - - - - - NE 43 52 23 28 - - -
25/04:00pm - - - - - NE 41 54 22 29 - - -
25/03:30pm - - - - - NE 44 52 24 28 - - -
25/03:00pm - - - - - NE 43 50 23 27 - - -
25/02:30pm - - - - - NE 43 50 23 27 - - -
25/02:00pm - - - - - NE 41 46 22 25 - - -
25/01:30pm - - - - - NE 39 44 21 24 - - -
25/01:00pm - - - - - NE 37 43 20 23 - - -
25/12:30pm - - - - - NE 35 41 19 22 - - -
25/12:00pm - - - - - NE 33 39 18 21 - - -
25/11:30am - - - - - NE 32 37 17 20 - - -
25/11:00am - - - - - NE 32 37 17 20 - - -
25/10:30am - - - - - NE 30 35 16 19 - - -
25/10:00am - - - - - NE 28 33 15 18 - - -
25/09:30am - - - - - NE 28 33 15 18 - - -
25/09:00am - - - - - N 20 26 11 14 - - -
25/08:30am - - - - - NNW 17 26 9 14 - - -
25/08:00am - - - - - NNW 17 20 9 11 - - -
25/07:30am - - - - - NNW 17 20 9 11 - - -
25/07:00am - - - - - NW 17 22 9 12 - - -
25/06:30am - - - - - NW 17 20 9 11 - - -
25/06:00am - - - - - NNW 20 26 11 14 - - -
25/05:30am - - - - - NNW 22 28 12 15 - - -
25/05:00am - - - - - NNW 22 26 12 14 - - -
25/04:30am - - - - - NNW 19 22 10 12 - - -
25/04:00am - - - - - NNW 17 20 9 11 - - -
25/03:30am - - - - - NW 17 20 9 11 - - -
25/03:00am - - - - - NNW 17 19 9 10 - - -
25/02:30am - - - - - NNW 17 20 9 11 - - -
25/02:00am - - - - - NNW 17 20 9 11 - - -
25/01:30am - - - - - N 22 26 12 14 - - -
25/01:00am - - - - - N 22 26 12 14 - - -
25/12:30am - - - - - NNW 17 20 9 11 - - -
25/12:00am - - - - - NNW 19 22 10 12 - - -
 
Date/Time
EST
Temp
°C
App
Temp
°C
Dew
Point
Rel
Hum
%
Delta-T
°C
Wind Press
QNH
hPa
Press
MSL
hPa
Rain
since 9 am
mm
Dir
 
Spd
km/h
Gust
km/h
Spd
kts
Gust
kts
24/11:30pm - - - - - NE 24 28 13 15 - - -
24/11:00pm - - - - - N 24 28 13 15 - - -
24/10:30pm - - - - - NE 22 26 12 14 - - -
24/10:00pm - - - - - NE 26 32 14 17 - - -
24/09:30pm - - - - - NE 26 30 14 16 - - -
24/09:00pm - - - - - NE 26 32 14 17 - - -
24/08:30pm - - - - - NE 30 35 16 19 - - -
24/08:00pm - - - - - NE 28 32 15 17 - - -
24/07:30pm - - - - - NE 28 33 15 18 - - -
24/07:00pm - - - - - NE 28 33 15 18 - - -
24/06:30pm - - - - - NE 30 33 16 18 - - -
24/06:00pm - - - - - NE 32 39 17 21 - - -
24/05:30pm - - - - - NE 33 39 18 21 - - -
24/05:00pm - - - - - NE 30 33 16 18 - - -
24/04:30pm - - - - - NE 24 28 13 15 - - -
24/04:00pm - - - - - NE 26 30 14 16 - - -
24/03:30pm - - - - - NE 26 30 14 16 - - -
24/03:00pm - - - - - NE 28 32 15 17 - - -
24/02:30pm - - - - - NE 26 30 14 16 - - -
24/02:00pm - - - - - NE 24 28 13 15 - - -
24/01:30pm - - - - - NE 24 26 13 14 - - -
24/01:00pm - - - - - NE 22 26 12 14 - - -
24/12:30pm - - - - - NE 19 22 10 12 - - -
24/12:00pm - - - - - NE 13 19 7 10 - - -
24/11:30am - - - - - NE 13 17 7 9 - - -
24/11:00am - - - - - NE 7 9 4 5 - - -
24/10:30am - - - - - NE 7 11 4 6 - - -
24/10:00am - - - - - NW 9 11 5 6 - - -
24/09:30am - - - - - NW 9 11 5 6 - - -
24/09:00am - - - - - NW 11 13 6 7 - - -
24/08:30am - - - - - WNW 6 9 3 5 - - -
24/08:00am - - - - - WNW 6 9 3 5 - - -
24/07:30am - - - - - W 7 9 4 5 - - -
24/07:00am - - - - - WNW 9 11 5 6 - - -
24/06:30am - - - - - NW 7 9 4 5 - - -
24/06:00am - - - - - NW 9 11 5 6 - - -
24/05:30am - - - - - NNW 11 13 6 7 - - -
24/05:00am - - - - - NNW 9 13 5 7 - - -
24/04:30am - - - - - NNW 11 13 6 7 - - -
24/04:00am - - - - - NNW 11 13 6 7 - - -
24/03:30am - - - - - NNW 9 13 5 7 - - -
24/03:00am - - - - - NNW 13 15 7 8 - - -
24/02:30am - - - - - N 15 24 8 13 - - -
24/02:00am - - - - - NE 19 22 10 12 - - -
24/01:30am - - - - - NE 22 24 12 13 - - -
24/01:00am - - - - - NE 19 22 10 12 - - -
24/12:30am - - - - - NE 20 24 11 13 - - -
24/12:00am - - - - - NE 19 24 10 13 - - -
 
Date/Time
EST
Temp
°C
App
Temp
°C
Dew
Point
Rel
Hum
%
Delta-T
°C
Wind Press
QNH
hPa
Press
MSL
hPa
Rain
since 9 am
mm
Dir
 
Spd
km/h
Gust
km/h
Spd
kts
Gust
kts
23/11:30pm - - - - - NE 20 22 11 12 - - -
23/11:00pm - - - - - NE 20 24 11 13 - - -
23/10:30pm - - - - - NE 19 24 10 13 - - -
23/10:00pm - - - - - NE 19 22 10 12 - - -
23/09:30pm - - - - - NE 15 19 8 10 - - -
23/09:00pm - - - - - NE 19 22 10 12 - - -
23/08:30pm - - - - - NE 19 22 10 12 - - -
23/08:00pm - - - - - NE 20 24 11 13 - - -
23/07:30pm - - - - - NE 22 24 12 13 - - -
23/07:00pm - - - - - NE 24 28 13 15 - - -
23/06:30pm - - - - - NE 24 28 13 15 - - -
23/06:00pm - - - - - NE 26 28 14 15 - - -
23/05:30pm - - - - - NE 28 32 15 17 - - -
23/05:00pm - - - - - NE 32 35 17 19 - - -
23/04:30pm - - - - - NE 32 35 17 19 - - -
23/04:00pm - - - - - NE 30 33 16 18 - - -
23/03:30pm - - - - - NE 30 33 16 18 - - -
23/03:00pm - - - - - NE 26 30 14 16 - - -
23/02:30pm - - - - - NE 22 26 12 14 - - -
23/02:00pm - - - - - NE 19 22 10 12 - - -
23/01:30pm - - - - - NE 19 22 10 12 - - -
23/01:00pm - - - - - NE 19 22 10 12 - - -
23/12:30pm - - - - - NE 17 19 9 10 - - -
23/12:00pm - - - - - NE 13 17 7 9 - - -
23/11:30am - - - - - NE 7 11 4 6 - - -
23/11:00am - - - - - NNW 2 6 1 3 - - -

Other Formats:

Comma delimited format used in spreadsheet applications
http://www.bom.gov.au/fwo/IDQ60801/IDQ60801.94590.axf

JavaScript Object Notation format (JSON) in row-major order
http://www.bom.gov.au/fwo/IDQ60801/IDQ60801.94590.json